sensor_id;sensor_type;location;lat;lon;timestamp;P1;durP1;ratioP1;P2;durP2;ratioP2
39872;SDS011;63160;48.854;9.292;2023-04-05T11:18:44;5.68;;;4.05;;
39872;SDS011;63160;48.854;9.292;2023-04-05T11:21:18;4.70;;;4.25;;
39872;SDS011;63160;48.854;9.292;2023-04-05T11:24:06;5.18;;;4.68;;
39872;SDS011;63160;48.854;9.292;2023-04-05T11:29:10;5.15;;;4.28;;
39872;SDS011;63160;48.854;9.292;2023-04-05T11:31:55;5.00;;;4.50;;
39872;SDS011;63160;48.854;9.292;2023-04-05T11:34:26;5.32;;;4.50;;
39872;SDS011;63160;48.854;9.292;2023-04-05T11:36:53;6.35;;;4.57;;
39872;SDS011;63160;48.854;9.292;2023-04-05T11:44:39;5.25;;;4.43;;
39872;SDS011;63160;48.854;9.292;2023-04-05T11:47:11;4.35;;;3.95;;
39872;SDS011;63160;48.854;9.292;2023-04-05T11:49:39;5.68;;;5.13;;
39872;SDS011;63160;48.854;9.292;2023-04-05T11:52:14;5.22;;;4.07;;
39872;SDS011;63160;48.854;9.292;2023-04-05T11:54:43;7.30;;;4.60;;
39872;SDS011;63160;48.854;9.292;2023-04-05T11:57:17;5.25;;;4.22;;
39872;SDS011;63160;48.854;9.292;2023-04-05T11:59:45;5.70;;;3.97;;
39872;SDS011;63160;48.854;9.292;2023-04-05T12:02:12;6.70;;;4.65;;
39872;SDS011;63160;48.854;9.292;2023-04-05T12:04:39;5.97;;;4.70;;
39872;SDS011;63160;48.854;9.292;2023-04-05T12:07:09;7.57;;;5.38;;
39872;SDS011;63160;48.854;9.292;2023-04-05T12:12:34;5.72;;;4.50;;
39872;SDS011;63160;48.854;9.292;2023-04-05T12:15:03;6.18;;;4.32;;
39872;SDS011;63160;48.854;9.292;2023-04-05T12:17:40;7.80;;;5.00;;
39872;SDS011;63160;48.854;9.292;2023-04-05T12:20:10;5.00;;;4.50;;
39872;SDS011;63160;48.854;9.292;2023-04-05T12:22:37;5.68;;;4.30;;
39872;SDS011;63160;48.854;9.292;2023-04-05T12:25:05;4.55;;;4.15;;
39872;SDS011;63160;48.854;9.292;2023-04-05T12:27:33;5.13;;;4.63;;
39872;SDS011;63160;48.854;9.292;2023-04-05T12:30:07;5.72;;;4.70;;
39872;SDS011;63160;48.854;9.292;2023-04-05T12:32:39;4.90;;;4.18;;
39872;SDS011;63160;48.854;9.292;2023-04-05T12:35:16;5.22;;;4.60;;
39872;SDS011;63160;48.854;9.292;2023-04-05T12:37:44;6.50;;;4.63;;
39872;SDS011;63160;48.854;9.292;2023-04-05T12:40:12;4.90;;;4.25;;
39872;SDS011;63160;48.854;9.292;2023-04-05T12:42:39;4.28;;;3.80;;
39872;SDS011;63160;48.854;9.292;2023-04-05T12:45:10;5.82;;;4.20;;
39872;SDS011;63160;48.854;9.292;2023-04-05T12:47:57;4.40;;;3.60;;
39872;SDS011;63160;48.854;9.292;2023-04-05T12:50:28;4.70;;;4.20;;
39872;SDS011;63160;48.854;9.292;2023-04-05T12:53:00;5.28;;;4.03;;
39872;SDS011;63160;48.854;9.292;2023-04-05T12:55:30;5.20;;;4.70;;
39872;SDS011;63160;48.854;9.292;2023-04-05T12:57:58;5.60;;;4.22;;
39872;SDS011;63160;48.854;9.292;2023-04-05T13:00:29;6.63;;;4.78;;
39872;SDS011;63160;48.854;9.292;2023-04-05T13:02:57;5.22;;;4.28;;
39872;SDS011;63160;48.854;9.292;2023-04-05T13:05:24;5.07;;;4.28;;
39872;SDS011;63160;48.854;9.292;2023-04-05T13:07:52;5.18;;;4.25;;
39872;SDS011;63160;48.854;9.292;2023-04-05T13:10:20;5.15;;;3.63;;
39872;SDS011;63160;48.854;9.292;2023-04-05T13:12:47;4.45;;;3.88;;
39872;SDS011;63160;48.854;9.292;2023-04-05T13:15:15;5.30;;;4.38;;
39872;SDS011;63160;48.854;9.292;2023-04-05T13:17:42;6.90;;;6.30;;
39872;SDS011;63160;48.854;9.292;2023-04-05T13:20:11;5.85;;;5.20;;
39872;SDS011;63160;48.854;9.292;2023-04-05T13:22:37;5.72;;;4.13;;
39872;SDS011;63160;48.854;9.292;2023-04-05T13:25:04;4.38;;;3.97;;
39872;SDS011;63160;48.854;9.292;2023-04-05T13:27:32;6.22;;;4.22;;
39872;SDS011;63160;48.854;9.292;2023-04-05T13:29:58;7.22;;;4.85;;
39872;SDS011;63160;48.854;9.292;2023-04-05T13:32:27;5.15;;;4.65;;
39872;SDS011;63160;48.854;9.292;2023-04-05T13:34:55;5.38;;;3.97;;
39872;SDS011;63160;48.854;9.292;2023-04-05T13:37:21;4.45;;;3.78;;
39872;SDS011;63160;48.854;9.292;2023-04-05T13:39:48;3.97;;;3.55;;
39872;SDS011;63160;48.854;9.292;2023-04-05T13:42:15;5.07;;;3.70;;
39872;SDS011;63160;48.854;9.292;2023-04-05T13:44:42;6.43;;;3.95;;
39872;SDS011;63160;48.854;9.292;2023-04-05T13:47:09;6.50;;;5.05;;
39872;SDS011;63160;48.854;9.292;2023-04-05T13:49:36;4.57;;;4.07;;
39872;SDS011;63160;48.854;9.292;2023-04-05T13:52:03;6.60;;;5.78;;
39872;SDS011;63160;48.854;9.292;2023-04-05T13:54:30;4.47;;;4.00;;
39872;SDS011;63160;48.854;9.292;2023-04-05T13:56:57;5.07;;;4.05;;
39872;SDS011;63160;48.854;9.292;2023-04-05T13:59:24;4.47;;;3.55;;
39872;SDS011;63160;48.854;9.292;2023-04-05T14:01:57;4.72;;;3.50;;
39872;SDS011;63160;48.854;9.292;2023-04-05T14:04:24;4.20;;;3.80;;
39872;SDS011;63160;48.854;9.292;2023-04-05T14:06:52;5.00;;;4.60;;
39872;SDS011;63160;48.854;9.292;2023-04-05T14:09:19;4.13;;;3.38;;
39872;SDS011;63160;48.854;9.292;2023-04-05T14:11:49;4.72;;;3.42;;
39872;SDS011;63160;48.854;9.292;2023-04-05T14:14:16;4.38;;;3.97;;
39872;SDS011;63160;48.854;9.292;2023-04-05T14:16:43;5.38;;;3.38;;
39872;SDS011;63160;48.854;9.292;2023-04-05T14:19:12;6.28;;;4.25;;
39872;SDS011;63160;48.854;9.292;2023-04-05T14:21:41;5.20;;;4.28;;
39872;SDS011;63160;48.854;9.292;2023-04-05T14:24:12;4.93;;;4.45;;
39872;SDS011;63160;48.854;9.292;2023-04-05T14:26:39;5.53;;;3.65;;
39872;SDS011;63160;48.854;9.292;2023-04-05T14:29:09;4.30;;;3.40;;
39872;SDS011;63160;48.854;9.292;2023-04-05T14:31:36;3.97;;;3.30;;
39872;SDS011;63160;48.854;9.292;2023-04-05T14:34:03;4.75;;;3.25;;
39872;SDS011;63160;48.854;9.292;2023-04-05T14:36:30;4.45;;;3.58;;
39872;SDS011;63160;48.854;9.292;2023-04-05T14:38:58;4.93;;;3.65;;
39872;SDS011;63160;48.854;9.292;2023-04-05T14:41:27;5.70;;;3.20;;
39872;SDS011;63160;48.854;9.292;2023-04-05T14:43:54;3.42;;;3.00;;
39872;SDS011;63160;48.854;9.292;2023-04-05T14:46:21;4.72;;;3.70;;
39872;SDS011;63160;48.854;9.292;2023-04-05T14:48:48;4.35;;;3.63;;
39872;SDS011;63160;48.854;9.292;2023-04-05T14:51:18;4.47;;;3.60;;
39872;SDS011;63160;48.854;9.292;2023-04-05T14:53:45;4.75;;;3.75;;
39872;SDS011;63160;48.854;9.292;2023-04-05T14:56:12;3.20;;;2.90;;
39872;SDS011;63160;48.854;9.292;2023-04-05T14:58:38;4.00;;;3.63;;
39872;SDS011;63160;48.854;9.292;2023-04-05T15:01:06;5.68;;;4.43;;
39872;SDS011;63160;48.854;9.292;2023-04-05T15:03:36;4.40;;;3.53;;
39872;SDS011;63160;48.854;9.292;2023-04-05T15:06:03;6.68;;;4.82;;
39872;SDS011;63160;48.854;9.292;2023-04-05T15:08:30;5.45;;;3.83;;
39872;SDS011;63160;48.854;9.292;2023-04-05T15:10:57;5.43;;;4.47;;
39872;SDS011;63160;48.854;9.292;2023-04-05T15:13:24;3.85;;;3.17;;
39872;SDS011;63160;48.854;9.292;2023-04-05T15:15:52;6.68;;;4.78;;
39872;SDS011;63160;48.854;9.292;2023-04-05T15:18:19;4.35;;;3.90;;
39872;SDS011;63160;48.854;9.292;2023-04-05T15:20:46;4.47;;;3.90;;
39872;SDS011;63160;48.854;9.292;2023-04-05T15:23:12;6.05;;;4.68;;
39872;SDS011;63160;48.854;9.292;2023-04-05T15:25:39;5.68;;;3.92;;
39872;SDS011;63160;48.854;9.292;2023-04-05T15:28:06;7.75;;;5.30;;
39872;SDS011;63160;48.854;9.292;2023-04-05T15:30:34;6.10;;;5.50;;
39872;SDS011;63160;48.854;9.292;2023-04-05T15:33:01;4.53;;;3.60;;
39872;SDS011;63160;48.854;9.292;2023-04-05T15:35:28;4.95;;;4.07;;
39872;SDS011;63160;48.854;9.292;2023-04-05T15:37:55;4.90;;;4.38;;
39872;SDS011;63160;48.854;9.292;2023-04-05T15:40:22;6.72;;;4.38;;
39872;SDS011;63160;48.854;9.292;2023-04-05T15:42:48;10.52;;;4.90;;
39872;SDS011;63160;48.854;9.292;2023-04-05T15:45:16;5.85;;;4.78;;
39872;SDS011;63160;48.854;9.292;2023-04-05T15:47:43;6.97;;;5.97;;
39872;SDS011;63160;48.854;9.292;2023-04-05T15:50:10;9.25;;;6.05;;
39872;SDS011;63160;48.854;9.292;2023-04-05T15:52:37;5.90;;;4.55;;
39872;SDS011;63160;48.854;9.292;2023-04-05T15:55:04;6.82;;;5.13;;
39872;SDS011;63160;48.854;9.292;2023-04-05T15:57:31;6.40;;;4.97;;
39872;SDS011;63160;48.854;9.292;2023-04-05T15:59:58;5.72;;;5.13;;
39872;SDS011;63160;48.854;9.292;2023-04-05T16:02:25;5.85;;;4.55;;
39872;SDS011;63160;48.854;9.292;2023-04-05T16:04:52;5.25;;;4.13;;
39872;SDS011;63160;48.854;9.292;2023-04-05T16:07:19;6.50;;;4.95;;
39872;SDS011;63160;48.854;9.292;2023-04-05T16:09:46;4.40;;;3.97;;
39872;SDS011;63160;48.854;9.292;2023-04-05T16:12:12;5.32;;;4.75;;
39872;SDS011;63160;48.854;9.292;2023-04-05T16:14:39;5.13;;;4.40;;
39872;SDS011;63160;48.854;9.292;2023-04-05T16:17:06;5.10;;;4.65;;
39872;SDS011;63160;48.854;9.292;2023-04-05T16:19:33;6.18;;;4.38;;
39872;SDS011;63160;48.854;9.292;2023-04-05T16:22:00;4.80;;;4.35;;
39872;SDS011;63160;48.854;9.292;2023-04-05T16:24:28;6.95;;;6.30;;
39872;SDS011;63160;48.854;9.292;2023-04-05T16:26:56;7.25;;;5.03;;
39872;SDS011;63160;48.854;9.292;2023-04-05T16:29:24;6.70;;;4.47;;
39872;SDS011;63160;48.854;9.292;2023-04-05T16:31:51;5.65;;;4.57;;
39872;SDS011;63160;48.854;9.292;2023-04-05T16:34:18;6.07;;;4.85;;
39872;SDS011;63160;48.854;9.292;2023-04-05T16:36:45;6.88;;;4.53;;
39872;SDS011;63160;48.854;9.292;2023-04-05T16:39:12;6.78;;;6.13;;
39872;SDS011;63160;48.854;9.292;2023-04-05T16:41:39;5.38;;;4.88;;
39872;SDS011;63160;48.854;9.292;2023-04-05T16:44:06;6.75;;;4.93;;
39872;SDS011;63160;48.854;9.292;2023-04-05T16:46:33;6.32;;;4.35;;
39872;SDS011;63160;48.854;9.292;2023-04-05T16:49:00;4.78;;;3.97;;
39872;SDS011;63160;48.854;9.292;2023-04-05T16:51:27;8.88;;;4.88;;
39872;SDS011;63160;48.854;9.292;2023-04-05T16:53:54;5.90;;;4.25;;
39872;SDS011;63160;48.854;9.292;2023-04-05T16:56:21;10.40;;;6.15;;
39872;SDS011;63160;48.854;9.292;2023-04-05T16:58:48;12.27;;;9.52;;
39872;SDS011;63160;48.854;9.292;2023-04-05T17:01:15;22.90;;;13.77;;
39872;SDS011;63160;48.854;9.292;2023-04-05T17:03:42;10.60;;;5.60;;
39872;SDS011;63160;48.854;9.292;2023-04-05T17:06:13;6.30;;;4.90;;
39872;SDS011;63160;48.854;9.292;2023-04-05T17:08:40;6.35;;;4.82;;
39872;SDS011;63160;48.854;9.292;2023-04-05T17:11:08;6.47;;;4.05;;
39872;SDS011;63160;48.854;9.292;2023-04-05T17:13:35;6.93;;;5.00;;
39872;SDS011;63160;48.854;9.292;2023-04-05T17:16:02;5.93;;;5.05;;
39872;SDS011;63160;48.854;9.292;2023-04-05T17:18:29;6.88;;;5.18;;
39872;SDS011;63160;48.854;9.292;2023-04-05T17:20:56;9.02;;;5.68;;
39872;SDS011;63160;48.854;9.292;2023-04-05T17:23:23;7.88;;;6.38;;
39872;SDS011;63160;48.854;9.292;2023-04-05T17:25:51;7.55;;;5.65;;
39872;SDS011;63160;48.854;9.292;2023-04-05T17:28:17;8.85;;;7.88;;
39872;SDS011;63160;48.854;9.292;2023-04-05T17:30:44;8.88;;;7.63;;
39872;SDS011;63160;48.854;9.292;2023-04-05T17:33:11;8.43;;;6.00;;
39872;SDS011;63160;48.854;9.292;2023-04-05T17:35:41;7.53;;;5.38;;
39872;SDS011;63160;48.854;9.292;2023-04-05T17:38:08;7.35;;;6.65;;
39872;SDS011;63160;48.854;9.292;2023-04-05T17:40:35;9.52;;;6.75;;
39872;SDS011;63160;48.854;9.292;2023-04-05T17:43:02;13.00;;;8.85;;
39872;SDS011;63160;48.854;9.292;2023-04-05T17:45:29;12.25;;;7.53;;
39872;SDS011;63160;48.854;9.292;2023-04-05T17:47:55;11.50;;;9.63;;
39872;SDS011;63160;48.854;9.292;2023-04-05T17:50:22;15.52;;;10.52;;
39872;SDS011;63160;48.854;9.292;2023-04-05T17:52:50;11.90;;;8.38;;
39872;SDS011;63160;48.854;9.292;2023-04-05T17:55:17;14.88;;;10.10;;
39872;SDS011;63160;48.854;9.292;2023-04-05T17:57:50;9.95;;;7.95;;
39872;SDS011;63160;48.854;9.292;2023-04-05T18:00:17;8.48;;;5.57;;
39872;SDS011;63160;48.854;9.292;2023-04-05T18:02:44;8.50;;;5.55;;
39872;SDS011;63160;48.854;9.292;2023-04-05T18:05:11;7.43;;;6.00;;
39872;SDS011;63160;48.854;9.292;2023-04-05T18:07:38;7.00;;;5.93;;
39872;SDS011;63160;48.854;9.292;2023-04-05T18:10:07;7.43;;;5.88;;
39872;SDS011;63160;48.854;9.292;2023-04-05T18:12:35;7.97;;;6.13;;
39872;SDS011;63160;48.854;9.292;2023-04-05T18:15:02;7.93;;;5.72;;
39872;SDS011;63160;48.854;9.292;2023-04-05T18:17:29;7.28;;;5.22;;
39872;SDS011;63160;48.854;9.292;2023-04-05T18:19:56;6.00;;;5.22;;
39872;SDS011;63160;48.854;9.292;2023-04-05T18:22:23;7.68;;;4.80;;
39872;SDS011;63160;48.854;9.292;2023-04-05T18:24:49;8.07;;;5.90;;
39872;SDS011;63160;48.854;9.292;2023-04-05T18:27:16;7.25;;;5.68;;
39872;SDS011;63160;48.854;9.292;2023-04-05T18:29:44;7.40;;;5.28;;
39872;SDS011;63160;48.854;9.292;2023-04-05T18:32:12;6.53;;;5.22;;
39872;SDS011;63160;48.854;9.292;2023-04-05T18:34:38;6.10;;;5.43;;
39872;SDS011;63160;48.854;9.292;2023-04-05T18:37:05;7.18;;;5.38;;
39872;SDS011;63160;48.854;9.292;2023-04-05T18:39:32;7.43;;;5.72;;
39872;SDS011;63160;48.854;9.292;2023-04-05T18:41:59;6.65;;;5.40;;
39872;SDS011;63160;48.854;9.292;2023-04-05T18:44:26;8.15;;;7.35;;
39872;SDS011;63160;48.854;9.292;2023-04-05T18:46:52;8.10;;;5.47;;
39872;SDS011;63160;48.854;9.292;2023-04-05T18:49:19;7.22;;;6.03;;
39872;SDS011;63160;48.854;9.292;2023-04-05T18:51:46;8.43;;;7.45;;
39872;SDS011;63160;48.854;9.292;2023-04-05T18:54:14;8.05;;;6.47;;
39872;SDS011;63160;48.854;9.292;2023-04-05T18:56:44;10.15;;;8.98;;
39872;SDS011;63160;48.854;9.292;2023-04-05T18:59:11;8.88;;;7.35;;
39872;SDS011;63160;48.854;9.292;2023-04-05T19:01:38;10.30;;;7.78;;
39872;SDS011;63160;48.854;9.292;2023-04-05T19:04:05;8.30;;;5.90;;
39872;SDS011;63160;48.854;9.292;2023-04-05T19:06:32;7.97;;;6.95;;
39872;SDS011;63160;48.854;9.292;2023-04-05T19:09:00;11.07;;;6.93;;
39872;SDS011;63160;48.854;9.292;2023-04-05T19:11:27;10.60;;;6.00;;
39872;SDS011;63160;48.854;9.292;2023-04-05T19:13:54;6.07;;;5.47;;
39872;SDS011;63160;48.854;9.292;2023-04-05T19:16:21;7.18;;;5.95;;
39872;SDS011;63160;48.854;9.292;2023-04-05T19:18:47;6.55;;;5.82;;
39872;SDS011;63160;48.854;9.292;2023-04-05T19:21:14;8.43;;;7.00;;
39872;SDS011;63160;48.854;9.292;2023-04-05T19:23:41;8.35;;;7.55;;
39872;SDS011;63160;48.854;9.292;2023-04-05T19:26:08;7.43;;;6.07;;
39872;SDS011;63160;48.854;9.292;2023-04-05T19:28:35;7.03;;;6.15;;
39872;SDS011;63160;48.854;9.292;2023-04-05T19:31:02;9.18;;;6.75;;
39872;SDS011;63160;48.854;9.292;2023-04-05T19:33:29;8.50;;;6.93;;
39872;SDS011;63160;48.854;9.292;2023-04-05T19:42:51;10.85;;;7.88;;
39872;SDS011;63160;48.854;9.292;2023-04-05T19:45:25;11.13;;;7.25;;
39872;SDS011;63160;48.854;9.292;2023-04-05T19:47:54;11.23;;;7.70;;
39872;SDS011;63160;48.854;9.292;2023-04-05T19:53:02;9.75;;;7.28;;
39872;SDS011;63160;48.854;9.292;2023-04-05T19:55:33;11.75;;;7.55;;
39872;SDS011;63160;48.854;9.292;2023-04-05T19:58:08;11.70;;;7.50;;
39872;SDS011;63160;48.854;9.292;2023-04-05T20:00:36;11.25;;;8.27;;
39872;SDS011;63160;48.854;9.292;2023-04-05T20:03:20;11.65;;;8.57;;
39872;SDS011;63160;48.854;9.292;2023-04-05T20:08:14;10.98;;;8.52;;
39872;SDS011;63160;48.854;9.292;2023-04-05T20:10:41;11.80;;;8.23;;
39872;SDS011;63160;48.854;9.292;2023-04-05T20:13:16;9.48;;;7.65;;
39872;SDS011;63160;48.854;9.292;2023-04-05T20:15:44;11.63;;;9.10;;
39872;SDS011;63160;48.854;9.292;2023-04-05T20:18:17;12.93;;;8.38;;
39872;SDS011;63160;48.854;9.292;2023-04-05T20:20:48;11.82;;;9.75;;
39872;SDS011;63160;48.854;9.292;2023-04-05T20:23:18;11.52;;;8.73;;
39872;SDS011;63160;48.854;9.292;2023-04-05T20:25:48;11.15;;;8.55;;
39872;SDS011;63160;48.854;9.292;2023-04-05T20:30:57;13.02;;;8.75;;
39872;SDS011;63160;48.854;9.292;2023-04-05T20:33:32;11.02;;;9.93;;
39872;SDS011;63160;48.854;9.292;2023-04-05T20:41:59;13.18;;;10.32;;
39872;SDS011;63160;48.854;9.292;2023-04-05T20:44:26;10.23;;;7.90;;
39872;SDS011;63160;48.854;9.292;2023-04-05T20:46:54;11.05;;;9.80;;
39872;SDS011;63160;48.854;9.292;2023-04-05T20:49:26;11.35;;;8.27;;
39872;SDS011;63160;48.854;9.292;2023-04-05T20:58:42;11.50;;;10.23;;
39872;SDS011;63160;48.854;9.292;2023-04-05T21:01:09;12.82;;;8.88;;
39872;SDS011;63160;48.854;9.292;2023-04-05T21:03:37;12.02;;;8.07;;
39872;SDS011;63160;48.854;9.292;2023-04-05T21:06:06;11.10;;;8.88;;
39872;SDS011;63160;48.854;9.292;2023-04-05T21:08:34;12.70;;;8.00;;
39872;SDS011;63160;48.854;9.292;2023-04-05T21:11:02;8.88;;;7.55;;
39872;SDS011;63160;48.854;9.292;2023-04-05T21:13:29;11.52;;;8.00;;
39872;SDS011;63160;48.854;9.292;2023-04-05T21:15:56;12.40;;;8.45;;
39872;SDS011;63160;48.854;9.292;2023-04-05T21:18:23;10.50;;;7.95;;
39872;SDS011;63160;48.854;9.292;2023-04-05T21:20:51;12.15;;;8.43;;
39872;SDS011;63160;48.854;9.292;2023-04-05T21:23:19;10.57;;;7.95;;
39872;SDS011;63160;48.854;9.292;2023-04-05T21:25:49;11.15;;;8.25;;
39872;SDS011;63160;48.854;9.292;2023-04-05T21:28:15;11.27;;;9.07;;
39872;SDS011;63160;48.854;9.292;2023-04-05T21:30:42;10.20;;;9.00;;
39872;SDS011;63160;48.854;9.292;2023-04-05T21:33:09;11.93;;;8.95;;
39872;SDS011;63160;48.854;9.292;2023-04-05T21:35:37;11.15;;;8.95;;
39872;SDS011;63160;48.854;9.292;2023-04-05T21:38:04;12.50;;;8.77;;
39872;SDS011;63160;48.854;9.292;2023-04-05T21:40:34;13.13;;;9.20;;
39872;SDS011;63160;48.854;9.292;2023-04-05T21:43:20;14.52;;;9.23;;
39872;SDS011;63160;48.854;9.292;2023-04-05T21:45:47;11.70;;;8.23;;
39872;SDS011;63160;48.854;9.292;2023-04-05T21:48:20;13.40;;;8.98;;
39872;SDS011;63160;48.854;9.292;2023-04-05T21:50:53;14.30;;;8.95;;
39872;SDS011;63160;48.854;9.292;2023-04-05T21:53:20;15.07;;;9.20;;
39872;SDS011;63160;48.854;9.292;2023-04-05T21:55:49;12.38;;;9.80;;
39872;SDS011;63160;48.854;9.292;2023-04-05T21:58:18;11.07;;;9.02;;
39872;SDS011;63160;48.854;9.292;2023-04-05T22:00:45;10.73;;;8.40;;
39872;SDS011;63160;48.854;9.292;2023-04-05T22:03:12;12.02;;;8.82;;
39872;SDS011;63160;48.854;9.292;2023-04-05T22:05:38;13.23;;;9.57;;
39872;SDS011;63160;48.854;9.292;2023-04-05T22:08:05;12.85;;;9.55;;
39872;SDS011;63160;48.854;9.292;2023-04-05T22:10:34;11.75;;;8.48;;
39872;SDS011;63160;48.854;9.292;2023-04-05T22:13:01;14.13;;;10.32;;
39872;SDS011;63160;48.854;9.292;2023-04-05T22:15:28;14.23;;;9.13;;
39872;SDS011;63160;48.854;9.292;2023-04-05T22:17:54;11.68;;;8.48;;
39872;SDS011;63160;48.854;9.292;2023-04-05T22:20:21;11.00;;;9.43;;
39872;SDS011;63160;48.854;9.292;2023-04-05T22:22:48;11.20;;;8.43;;
39872;SDS011;63160;48.854;9.292;2023-04-05T22:25:16;10.55;;;7.75;;
39872;SDS011;63160;48.854;9.292;2023-04-05T22:27:43;11.43;;;8.25;;
39872;SDS011;63160;48.854;9.292;2023-04-05T22:30:10;11.32;;;8.10;;
39872;SDS011;63160;48.854;9.292;2023-04-05T22:32:37;12.80;;;8.82;;
39872;SDS011;63160;48.854;9.292;2023-04-05T22:35:04;13.75;;;9.40;;
39872;SDS011;63160;48.854;9.292;2023-04-05T22:37:32;12.82;;;8.63;;
39872;SDS011;63160;48.854;9.292;2023-04-05T22:40:02;13.68;;;7.72;;
39872;SDS011;63160;48.854;9.292;2023-04-05T22:42:29;12.95;;;9.45;;
39872;SDS011;63160;48.854;9.292;2023-04-05T22:44:57;11.82;;;8.82;;
39872;SDS011;63160;48.854;9.292;2023-04-05T22:47:24;14.23;;;8.45;;
39872;SDS011;63160;48.854;9.292;2023-04-05T22:49:51;13.48;;;8.95;;
39872;SDS011;63160;48.854;9.292;2023-04-05T22:52:18;10.05;;;7.68;;
39872;SDS011;63160;48.854;9.292;2023-04-05T22:54:45;11.27;;;9.15;;
39872;SDS011;63160;48.854;9.292;2023-04-05T22:57:11;11.70;;;8.43;;
39872;SDS011;63160;48.854;9.292;2023-04-05T22:59:38;9.55;;;7.93;;
39872;SDS011;63160;48.854;9.292;2023-04-05T23:02:06;11.18;;;10.07;;
39872;SDS011;63160;48.854;9.292;2023-04-05T23:04:32;11.98;;;10.45;;
39872;SDS011;63160;48.854;9.292;2023-04-05T23:07:00;11.13;;;8.73;;
39872;SDS011;63160;48.854;9.292;2023-04-05T23:09:26;10.82;;;8.63;;
39872;SDS011;63160;48.854;9.292;2023-04-05T23:11:53;12.20;;;7.68;;
39872;SDS011;63160;48.854;9.292;2023-04-05T23:14:20;11.20;;;8.30;;
39872;SDS011;63160;48.854;9.292;2023-04-05T23:16:47;10.65;;;7.85;;
39872;SDS011;63160;48.854;9.292;2023-04-05T23:19:13;8.95;;;7.22;;
39872;SDS011;63160;48.854;9.292;2023-04-05T23:21:40;11.55;;;9.05;;
39872;SDS011;63160;48.854;9.292;2023-04-05T23:24:07;12.30;;;8.27;;
39872;SDS011;63160;48.854;9.292;2023-04-05T23:26:36;10.15;;;8.35;;
39872;SDS011;63160;48.854;9.292;2023-04-05T23:29:02;10.85;;;8.13;;
39872;SDS011;63160;48.854;9.292;2023-04-05T23:31:29;11.57;;;7.55;;
39872;SDS011;63160;48.854;9.292;2023-04-05T23:33:56;11.32;;;8.77;;
39872;SDS011;63160;48.854;9.292;2023-04-05T23:36:23;10.02;;;8.07;;
39872;SDS011;63160;48.854;9.292;2023-04-05T23:38:50;8.95;;;7.75;;
39872;SDS011;63160;48.854;9.292;2023-04-05T23:41:16;11.10;;;7.32;;
39872;SDS011;63160;48.854;9.292;2023-04-05T23:43:43;10.25;;;7.68;;
39872;SDS011;63160;48.854;9.292;2023-04-05T23:46:11;9.35;;;6.88;;
39872;SDS011;63160;48.854;9.292;2023-04-05T23:48:38;9.50;;;7.60;;
39872;SDS011;63160;48.854;9.292;2023-04-05T23:51:04;9.07;;;7.13;;
39872;SDS011;63160;48.854;9.292;2023-04-05T23:53:31;13.35;;;8.15;;
39872;SDS011;63160;48.854;9.292;2023-04-05T23:55:59;10.32;;;7.38;;
39872;SDS011;63160;48.854;9.292;2023-04-05T23:58:26;10.73;;;8.15;;
